createdAt,value
2023-04-09T00:01:09.255Z,25.87
2023-04-09T00:06:01.471Z,24.40
2023-04-09T00:10:54.398Z,23.10
2023-04-09T00:15:47.624Z,24.80
2023-04-09T00:20:39.641Z,25.20
2023-04-09T00:25:31.712Z,24.10
2023-04-09T00:30:23.878Z,25.10
2023-04-09T00:35:17.496Z,24.33
2023-04-09T00:40:12.326Z,23.70
2023-04-09T00:45:05.372Z,26.00
2023-04-09T00:49:58.368Z,25.03
2023-04-09T00:54:53.562Z,24.87
2023-04-09T00:59:46.075Z,24.30
2023-04-09T01:04:40.639Z,24.23
2023-04-09T01:15:25.580Z,25.17
2023-04-09T01:20:33.291Z,22.60
2023-04-09T01:25:53.253Z,22.83
2023-04-09T01:30:50.422Z,21.93
2023-04-09T01:35:47.635Z,24.27
2023-04-09T01:40:41.595Z,22.97
2023-04-09T01:45:35.056Z,24.00
2023-04-09T01:50:28.182Z,24.47
2023-04-09T01:55:20.298Z,25.47
2023-04-09T02:00:14.169Z,24.63
2023-04-09T02:05:14.412Z,24.93
2023-04-09T02:10:08.600Z,23.87
2023-04-09T02:15:03.150Z,25.00
2023-04-09T02:19:55.484Z,24.90
2023-04-09T02:24:47.725Z,25.50
2023-04-09T02:29:41.629Z,24.70
2023-04-09T02:34:33.654Z,24.33
2023-04-09T02:39:26.074Z,23.43
2023-04-09T02:44:18.181Z,24.90
2023-04-09T02:49:10.229Z,23.67
2023-04-09T02:54:02.758Z,25.00
2023-04-09T02:58:55.358Z,23.43
2023-04-09T03:03:47.669Z,25.10
2023-04-09T03:08:39.842Z,24.17
2023-04-09T03:13:32.088Z,24.03
2023-04-09T03:18:24.075Z,25.83
2023-04-09T03:23:16.163Z,25.73
2023-04-09T03:28:13.094Z,26.93
2023-04-09T03:33:14.986Z,26.63
2023-04-09T03:38:15.765Z,27.03
2023-04-09T03:43:07.708Z,24.37
2023-04-09T03:48:03.054Z,23.60
2023-04-09T03:52:55.183Z,23.03
2023-04-09T03:57:48.787Z,22.37
2023-04-09T04:02:44.383Z,24.50
2023-04-09T04:07:37.172Z,23.33
2023-04-09T04:12:36.902Z,22.03
2023-04-09T04:17:33.118Z,23.47
2023-04-09T04:22:28.815Z,23.57
2023-04-09T04:27:24.736Z,23.63
2023-04-09T04:32:17.603Z,25.27
2023-04-09T04:37:09.928Z,26.07
2023-04-09T04:42:04.792Z,24.23
2023-04-09T04:46:57.434Z,26.60
2023-04-09T04:51:49.570Z,32.63
2023-04-09T04:56:42.365Z,26.97
2023-04-09T05:02:00.615Z,26.97
2023-04-09T05:06:56.153Z,24.77
2023-04-09T05:11:50.108Z,27.27
2023-04-09T05:16:45.736Z,30.70
2023-04-09T05:21:40.322Z,27.83
2023-04-09T05:26:32.680Z,24.73
2023-04-09T05:31:25.593Z,23.57
2023-04-09T05:36:23.547Z,24.87
2023-04-09T05:41:17.739Z,25.17
2023-04-09T05:46:48.235Z,23.90
2023-04-09T05:51:44.501Z,22.90
2023-04-09T05:56:43.314Z,22.47
2023-04-09T06:01:35.531Z,22.00
2023-04-09T06:06:28.926Z,21.57
2023-04-09T06:11:22.916Z,21.33
2023-04-09T06:16:16.283Z,20.83
2023-04-09T06:21:09.218Z,19.13
2023-04-09T06:26:02.837Z,18.83
2023-04-09T06:30:55.486Z,17.93
2023-04-09T06:35:48.711Z,20.97
2023-04-09T06:40:42.310Z,20.50
2023-04-09T06:45:34.673Z,21.83
2023-04-09T06:50:27.283Z,21.87
2023-04-09T06:55:19.503Z,19.60
2023-04-09T07:00:12.231Z,20.20
2023-04-09T07:05:05.113Z,21.13
2023-04-09T07:09:57.091Z,22.20
2023-04-09T07:14:49.090Z,22.27
2023-04-09T07:19:41.092Z,23.83
2023-04-09T07:24:33.047Z,26.53
2023-04-09T07:29:25.025Z,25.53
2023-04-09T07:34:17.037Z,25.73
2023-04-09T07:39:09.127Z,24.47
2023-04-09T07:44:03.379Z,23.30
2023-04-09T07:48:55.544Z,23.43
2023-04-09T07:53:47.668Z,24.60
2023-04-09T07:58:39.680Z,23.97
2023-04-09T08:03:32.009Z,22.27
2023-04-09T08:08:24.112Z,21.92
2023-04-09T08:13:16.130Z,20.42
2023-04-09T08:18:08.265Z,21.20
2023-04-09T08:23:00.325Z,22.17
2023-04-09T08:27:52.275Z,23.30
2023-04-09T08:32:45.643Z,23.67
2023-04-09T08:37:37.654Z,22.35
2023-04-09T08:42:31.798Z,21.15
2023-04-09T08:47:24.528Z,22.40
2023-04-09T08:52:19.137Z,22.03
2023-04-09T08:57:11.080Z,23.13
2023-04-09T09:02:12.723Z,22.57
2023-04-09T09:07:06.905Z,20.90
2023-04-09T09:11:58.862Z,20.60
2023-04-09T09:16:56.652Z,21.23
2023-04-09T09:21:59.950Z,19.63
2023-04-09T09:26:52.743Z,20.10
2023-04-09T09:31:49.391Z,19.80
2023-04-09T09:36:41.408Z,19.23
2023-04-09T09:41:33.451Z,20.43
2023-04-09T09:46:26.538Z,20.23
2023-04-09T09:51:19.690Z,20.17
2023-04-09T09:56:16.886Z,18.07
2023-04-09T10:01:12.188Z,20.57
2023-04-09T10:06:04.664Z,20.77
2023-04-09T10:10:56.816Z,19.60
2023-04-09T10:15:49.674Z,19.02
2023-04-09T10:20:49.239Z,17.02
2023-04-09T10:25:42.277Z,19.00
2023-04-09T10:30:37.720Z,19.27
2023-04-09T10:35:30.945Z,19.30
2023-04-09T10:40:22.953Z,19.40
2023-04-09T10:45:16.875Z,20.73
2023-04-09T10:50:30.840Z,22.57
2023-04-09T10:55:37.161Z,21.07
2023-04-09T11:00:29.216Z,23.57
2023-04-09T11:05:36.509Z,19.83
2023-04-09T11:10:28.524Z,23.03
2023-04-09T11:15:21.220Z,20.03
2023-04-09T11:20:18.332Z,20.93
2023-04-09T11:25:10.497Z,21.20
2023-04-09T11:30:02.487Z,20.47
2023-04-09T11:34:57.157Z,19.23
2023-04-09T11:39:55.627Z,18.40
2023-04-09T11:44:50.382Z,18.93
2023-04-09T11:49:42.575Z,18.17
2023-04-09T11:54:34.858Z,20.70
2023-04-09T11:59:26.991Z,20.37
2023-04-09T12:04:22.339Z,18.60
2023-04-09T12:09:14.970Z,19.23
2023-04-09T12:14:06.919Z,19.37
2023-04-09T12:19:09.670Z,18.13
2023-04-09T12:24:01.654Z,16.00
2023-04-09T12:28:53.882Z,13.83
2023-04-09T12:33:46.130Z,14.47
2023-04-09T12:38:38.207Z,15.43
2023-04-09T12:43:30.466Z,18.10
2023-04-09T12:48:22.443Z,18.03
2023-04-09T12:53:14.478Z,21.47
2023-04-09T12:58:06.567Z,18.90
2023-04-09T13:02:58.602Z,18.73
2023-04-09T13:07:51.447Z,18.70
2023-04-09T13:12:45.922Z,20.93
2023-04-09T13:17:37.917Z,20.33
2023-04-09T13:22:29.985Z,22.67
2023-04-09T13:27:22.128Z,20.60
2023-04-09T13:32:14.129Z,21.00
2023-04-09T13:37:06.313Z,20.83
2023-04-09T13:41:58.318Z,20.77
2023-04-09T13:46:50.509Z,20.33
2023-04-09T13:51:42.693Z,18.40
2023-04-09T13:56:34.745Z,17.17
2023-04-09T14:01:28.055Z,15.80
2023-04-09T14:06:20.370Z,17.20
2023-04-09T14:11:15.256Z,18.53
2023-04-09T14:16:08.184Z,16.37
2023-04-09T14:21:01.311Z,14.80
2023-04-09T14:25:53.576Z,13.67
2023-04-09T14:30:45.772Z,14.07
2023-04-09T14:35:37.833Z,13.87
2023-04-09T14:40:32.820Z,13.20
2023-04-09T14:45:24.855Z,13.80
2023-04-09T14:50:17.072Z,12.80
2023-04-09T14:55:12.464Z,11.07
2023-04-09T15:00:05.486Z,8.90
2023-04-09T15:04:57.533Z,10.30
2023-04-09T15:09:49.629Z,11.40
2023-04-09T15:14:41.659Z,11.60
2023-04-09T15:19:33.719Z,11.87
2023-04-09T15:24:25.667Z,11.53
2023-04-09T15:29:17.671Z,10.73
2023-04-09T15:34:09.820Z,12.37
2023-04-09T15:39:06.600Z,11.10
2023-04-09T15:43:58.985Z,13.10
2023-04-09T15:48:51.159Z,12.40
2023-04-09T15:53:43.394Z,13.23
2023-04-09T15:58:36.178Z,14.00
2023-04-09T16:03:28.239Z,13.40
2023-04-09T16:08:20.448Z,12.73
2023-04-09T16:13:12.539Z,13.47
2023-04-09T16:18:04.660Z,15.50
2023-04-09T16:22:56.683Z,12.77
2023-04-09T16:27:48.636Z,13.23
2023-04-09T16:32:40.842Z,14.27
2023-04-09T16:37:35.069Z,12.70
2023-04-09T16:42:27.400Z,13.03
2023-04-09T16:47:19.449Z,13.70
2023-04-09T16:52:11.590Z,13.80
2023-04-09T16:57:03.641Z,12.63
2023-04-09T17:01:55.754Z,13.63
2023-04-09T17:06:47.813Z,12.30
2023-04-09T17:11:39.886Z,13.50
2023-04-09T17:16:32.280Z,12.90
2023-04-09T17:21:24.330Z,13.33
2023-04-09T17:26:16.902Z,14.77
2023-04-09T17:31:15.942Z,14.00
2023-04-09T17:36:08.370Z,15.43
2023-04-09T17:41:00.429Z,13.97
2023-04-09T17:45:52.586Z,17.67
2023-04-09T17:50:44.600Z,16.37
2023-04-09T17:55:36.864Z,21.93
2023-04-09T18:00:28.854Z,16.73
2023-04-09T18:05:22.115Z,16.60
2023-04-09T18:10:14.154Z,15.47
2023-04-09T18:15:07.991Z,17.30
2023-04-09T18:19:59.998Z,16.97
2023-04-09T18:24:52.734Z,16.67
2023-04-09T18:29:44.682Z,19.57
2023-04-09T18:34:37.469Z,19.90
2023-04-09T18:39:30.940Z,19.73
2023-04-09T18:44:23.039Z,18.13
2023-04-09T18:49:15.435Z,17.23
2023-04-09T18:54:07.422Z,17.27
2023-04-09T18:58:59.329Z,17.17
2023-04-09T19:03:51.869Z,16.30
2023-04-09T19:08:48.061Z,15.97
2023-04-09T19:13:40.622Z,22.30
2023-04-09T19:18:34.291Z,21.57
2023-04-09T19:23:26.930Z,23.10
2023-04-09T19:28:19.245Z,21.43
2023-04-09T19:33:11.251Z,20.43
2023-04-09T19:38:04.751Z,20.07
2023-04-09T19:42:57.327Z,24.13
2023-04-09T19:47:49.449Z,21.00
2023-04-09T19:52:41.479Z,16.43
2023-04-09T19:57:33.564Z,23.40
2023-04-09T20:02:25.790Z,20.43
2023-04-09T20:07:18.062Z,21.43
2023-04-09T20:12:10.331Z,16.47
2023-04-09T20:17:02.458Z,17.77
2023-04-09T20:22:00.092Z,19.97
2023-04-09T20:26:52.114Z,18.40
2023-04-09T20:31:44.392Z,20.97
2023-04-09T20:36:37.829Z,19.87
2023-04-09T20:41:29.819Z,20.93
2023-04-09T20:46:21.830Z,20.40
2023-04-09T20:51:14.233Z,22.30
2023-04-09T20:56:07.386Z,21.80
2023-04-09T21:01:09.862Z,21.37
2023-04-09T21:06:02.813Z,23.63
2023-04-09T21:10:55.382Z,21.77
2023-04-09T21:15:48.173Z,23.77
2023-04-09T21:20:44.535Z,33.80
2023-04-09T21:25:36.785Z,41.50
2023-04-09T21:30:29.736Z,50.90
2023-04-09T21:35:22.075Z,31.97
2023-04-09T21:40:15.153Z,45.53
2023-04-09T21:45:09.083Z,59.93
2023-04-09T21:50:01.165Z,24.30
2023-04-09T21:54:53.189Z,30.20
2023-04-09T21:59:45.364Z,25.30
2023-04-09T22:04:37.960Z,31.87
2023-04-09T22:09:31.017Z,23.40
2023-04-09T22:14:23.149Z,26.27
2023-04-09T22:19:15.359Z,25.73
2023-04-09T22:24:07.697Z,27.40
2023-04-09T22:28:59.716Z,26.80
2023-04-09T22:33:51.644Z,25.43
2023-04-09T22:38:43.740Z,25.83
2023-04-09T22:43:36.312Z,25.47
2023-04-09T22:48:29.102Z,27.33
2023-04-09T22:53:21.281Z,29.50
2023-04-09T22:58:13.390Z,27.47
2023-04-09T23:03:06.050Z,26.47
2023-04-09T23:07:58.486Z,29.10
2023-04-09T23:12:50.610Z,30.00
2023-04-09T23:17:42.998Z,31.80
2023-04-09T23:22:35.246Z,30.60
2023-04-09T23:27:28.821Z,30.40
2023-04-09T23:32:22.338Z,30.07
2023-04-09T23:37:14.335Z,29.03
2023-04-09T23:42:06.595Z,28.60
2023-04-09T23:46:59.657Z,28.37
2023-04-09T23:51:51.817Z,26.77
2023-04-09T23:56:43.799Z,29.70
